createdAt,value
2019-03-23T00:00:44.341Z,37.53
2019-03-23T00:03:16.053Z,37.73
2019-03-23T00:05:47.838Z,36.53
2019-03-23T00:08:21.404Z,38.43
2019-03-23T00:10:53.982Z,37.60
2019-03-23T00:13:29.361Z,38.73
2019-03-23T00:16:01.396Z,43.60
2019-03-23T00:18:33.303Z,41.13
2019-03-23T00:21:09.375Z,44.67
2019-03-23T00:23:41.134Z,44.90
2019-03-23T00:26:13.407Z,44.67
2019-03-23T00:28:45.182Z,42.87
2019-03-23T00:31:16.991Z,43.00
2019-03-23T00:33:48.697Z,44.13
2019-03-23T00:36:20.837Z,41.90
2019-03-23T00:38:52.751Z,40.10
2019-03-23T00:41:24.913Z,39.10
2019-03-23T00:43:56.926Z,40.00
2019-03-23T00:46:29.771Z,39.33
2019-03-23T00:49:01.722Z,38.97
2019-03-23T00:51:35.590Z,39.83
2019-03-23T00:54:10.353Z,39.40
2019-03-23T00:56:42.257Z,38.83
2019-03-23T00:59:14.071Z,39.50
2019-03-23T01:01:46.020Z,40.37
2019-03-23T01:04:17.915Z,39.57
2019-03-23T01:06:52.298Z,38.47
2019-03-23T01:09:23.233Z,40.93
2019-03-23T01:11:55.048Z,36.47
2019-03-23T01:14:26.927Z,38.60
2019-03-23T01:16:58.829Z,38.77
2019-03-23T01:19:30.633Z,38.13
2019-03-23T01:22:03.385Z,39.43
2019-03-23T01:24:35.346Z,38.63
2019-03-23T01:27:08.205Z,39.63
2019-03-23T01:29:39.975Z,38.73
2019-03-23T01:32:11.858Z,37.47
2019-03-23T01:34:43.569Z,38.97
2019-03-23T01:37:15.369Z,41.47
2019-03-23T01:39:47.510Z,37.10
2019-03-23T01:42:19.418Z,39.30
2019-03-23T01:44:52.339Z,39.47
2019-03-23T01:47:24.039Z,38.13
2019-03-23T01:49:55.857Z,35.90
2019-03-23T01:52:27.832Z,36.93
2019-03-23T01:54:59.643Z,34.03
2019-03-23T01:57:35.108Z,35.93
2019-03-23T02:00:07.428Z,34.27
2019-03-23T02:02:42.250Z,34.60
2019-03-23T02:05:20.043Z,35.40
2019-03-23T02:07:53.564Z,34.83
2019-03-23T02:10:28.355Z,36.20
2019-03-23T02:13:00.337Z,36.47
2019-03-23T02:15:32.616Z,35.17
2019-03-23T02:18:04.419Z,35.97
2019-03-23T02:20:36.321Z,35.60
2019-03-23T02:23:08.333Z,35.23
2019-03-23T02:25:40.429Z,35.70
2019-03-23T02:28:12.232Z,34.33
2019-03-23T02:30:44.014Z,34.73
2019-03-23T02:33:15.736Z,34.60
2019-03-23T02:35:47.632Z,32.87
2019-03-23T02:38:19.382Z,33.10
2019-03-23T02:40:51.382Z,33.30
2019-03-23T06:34:22.406Z,23.47
2019-03-23T06:37:02.113Z,25.00
2019-03-23T06:40:07.020Z,24.53
2019-03-23T06:42:38.907Z,23.20
2019-03-23T06:45:11.386Z,24.27
2019-03-23T06:48:10.501Z,23.67
2019-03-23T06:50:42.528Z,23.83
2019-03-23T06:53:21.812Z,22.13
2019-03-23T06:55:53.824Z,22.00
2019-03-23T06:58:27.688Z,21.23
2019-03-23T07:01:01.647Z,22.87
2019-03-23T07:03:34.324Z,19.57
2019-03-23T07:06:06.416Z,20.20
2019-03-23T07:08:42.635Z,20.77
2019-03-23T07:11:57.256Z,20.27
2019-03-23T07:14:41.412Z,19.10
2019-03-23T07:17:15.603Z,20.57
2019-03-23T07:20:01.370Z,20.20
2019-03-23T07:22:42.161Z,19.60
2019-03-23T07:25:14.451Z,18.83
2019-03-23T07:27:51.717Z,19.37
2019-03-23T07:30:24.879Z,19.20
2019-03-23T07:33:02.299Z,23.80
2019-03-23T07:35:34.433Z,21.73
2019-03-23T07:38:06.251Z,22.37
2019-03-23T07:40:38.149Z,20.52
2019-03-23T07:43:10.312Z,21.68
2019-03-23T07:45:43.653Z,21.27
2019-03-23T07:48:17.011Z,20.72
2019-03-23T07:50:48.771Z,20.32
2019-03-23T07:53:25.470Z,20.20
2019-03-23T07:56:00.914Z,20.65
2019-03-23T07:58:34.846Z,21.00
2019-03-23T08:01:06.764Z,19.77
2019-03-23T08:03:38.702Z,21.17
2019-03-23T08:06:10.669Z,20.82
2019-03-23T08:08:42.482Z,20.97
2019-03-23T08:11:14.249Z,19.87
2019-03-23T08:13:46.134Z,21.07
2019-03-23T08:16:17.935Z,21.62
2019-03-23T08:18:50.834Z,22.73
2019-03-23T08:21:22.683Z,22.75
2019-03-23T08:23:54.578Z,23.83
2019-03-23T08:26:26.397Z,22.67
2019-03-23T08:28:58.198Z,23.38
2019-03-23T08:31:30.121Z,36.00
2019-03-23T08:34:01.858Z,32.58
2019-03-23T08:36:34.821Z,32.03
2019-03-23T08:39:07.925Z,31.65
2019-03-23T08:41:39.765Z,31.85
2019-03-23T08:44:11.897Z,32.23
2019-03-23T08:46:46.397Z,32.25
2019-03-23T08:49:18.356Z,29.30
2019-03-23T08:51:51.355Z,31.33
2019-03-23T08:54:23.164Z,31.60
2019-03-23T08:56:55.106Z,30.72
2019-03-23T08:59:28.673Z,32.13
2019-03-23T09:02:01.699Z,34.25
2019-03-23T09:04:33.612Z,31.02
2019-03-23T09:07:05.780Z,31.00
2019-03-23T09:09:37.597Z,33.33
2019-03-23T09:12:09.437Z,30.52
2019-03-23T09:14:41.446Z,30.62
2019-03-23T09:17:13.386Z,30.40
2019-03-23T09:19:45.193Z,33.20
2019-03-23T09:22:17.009Z,29.35
2019-03-23T09:24:52.062Z,31.17
2019-03-23T09:27:23.852Z,31.15
2019-03-23T09:29:55.986Z,30.45
2019-03-23T09:32:30.486Z,29.98
2019-03-23T09:35:03.792Z,30.68
2019-03-23T09:37:38.345Z,37.98
2019-03-23T09:40:11.490Z,35.25
2019-03-23T09:42:44.582Z,34.35
2019-03-23T09:45:16.506Z,34.60
2019-03-23T09:47:49.418Z,33.28
2019-03-23T09:50:21.472Z,31.52
2019-03-23T09:52:53.429Z,28.77
2019-03-23T09:55:25.224Z,28.25
2019-03-23T09:57:57.174Z,29.70
2019-03-23T10:00:30.521Z,28.45
2019-03-23T10:03:03.048Z,31.07
2019-03-23T10:05:36.271Z,30.97
2019-03-23T10:08:08.352Z,31.00
2019-03-23T10:10:40.605Z,31.45
2019-03-23T10:13:12.331Z,30.68
2019-03-23T10:15:44.238Z,27.93
2019-03-23T10:18:16.096Z,31.07
2019-03-23T10:20:48.089Z,29.25
2019-03-23T10:23:20.059Z,29.37
2019-03-23T10:25:51.898Z,29.98
2019-03-23T10:28:23.638Z,29.63
2019-03-23T10:30:55.492Z,29.20
2019-03-23T10:33:27.365Z,27.55
2019-03-23T10:35:59.381Z,28.35
2019-03-23T10:38:31.764Z,29.32
2019-03-23T10:41:03.808Z,28.52
2019-03-23T10:43:35.793Z,27.42
2019-03-23T10:46:07.597Z,26.52
2019-03-23T10:48:47.735Z,25.23
2019-03-23T10:51:19.447Z,25.75
2019-03-23T10:53:51.413Z,26.75
2019-03-23T10:56:23.220Z,24.90
2019-03-23T11:00:51.366Z,25.72
2019-03-23T11:05:36.626Z,24.07
2019-03-23T11:08:32.427Z,24.05
2019-03-23T11:11:12.795Z,25.25
2019-03-23T11:13:44.964Z,24.32
2019-03-23T11:16:22.931Z,24.43
2019-03-23T11:19:53.595Z,24.30
2019-03-23T11:22:53.978Z,24.12
2019-03-23T11:25:50.297Z,24.75
2019-03-23T11:28:18.816Z,25.40
2019-03-23T11:30:50.925Z,25.65
2019-03-23T11:34:06.384Z,26.23
2019-03-23T11:36:47.516Z,23.60
2019-03-23T11:39:19.415Z,23.32
2019-03-23T11:41:51.584Z,23.83
2019-03-23T11:44:23.471Z,24.82
2019-03-23T11:46:55.363Z,27.05
2019-03-23T11:49:27.391Z,24.45
2019-03-23T11:52:02.787Z,23.73
2019-03-23T11:54:35.316Z,23.70
2019-03-23T11:57:07.206Z,23.10
2019-03-23T11:59:39.233Z,24.27
2019-03-23T12:02:11.683Z,23.52
2019-03-23T12:04:43.555Z,24.63
2019-03-23T12:07:15.441Z,24.27
2019-03-23T12:09:47.287Z,23.18
2019-03-23T12:12:19.182Z,23.35
2019-03-23T12:14:51.215Z,21.95
2019-03-23T12:17:23.100Z,25.20
2019-03-23T12:20:04.136Z,24.00
2019-03-23T12:22:40.661Z,24.98
2019-03-23T12:25:14.130Z,28.15
2019-03-23T12:27:45.970Z,25.68
2019-03-23T12:30:18.229Z,25.72
2019-03-23T12:32:50.125Z,26.82
2019-03-23T12:35:22.365Z,27.58
2019-03-23T12:37:54.199Z,28.20
2019-03-23T12:40:26.107Z,28.10
2019-03-23T12:42:58.433Z,28.73
2019-03-23T12:45:30.898Z,30.82
2019-03-23T12:48:02.834Z,28.75
2019-03-23T12:50:36.101Z,30.82
2019-03-23T12:53:07.990Z,29.65
2019-03-23T12:55:40.133Z,32.10
2019-03-23T12:58:11.942Z,30.48
2019-03-23T13:00:43.752Z,29.98
2019-03-23T13:03:16.368Z,29.52
2019-03-23T13:05:53.489Z,29.25
2019-03-23T13:08:24.997Z,29.85
2019-03-23T13:10:56.817Z,30.97
2019-03-23T13:13:28.835Z,30.90
2019-03-23T13:16:00.756Z,29.50
2019-03-23T13:18:33.653Z,28.98
2019-03-23T13:21:05.477Z,32.50
2019-03-23T13:23:37.551Z,32.55
2019-03-23T13:26:11.342Z,30.25
2019-03-23T13:28:43.287Z,30.95
2019-03-23T13:31:15.468Z,31.42
2019-03-23T13:33:47.391Z,32.70
2019-03-23T13:36:19.253Z,32.78
2019-03-23T13:38:51.281Z,32.65
2019-03-23T13:41:23.513Z,33.48
2019-03-23T13:43:55.373Z,32.38
2019-03-23T13:46:27.465Z,32.03
2019-03-23T13:48:59.492Z,32.67
2019-03-23T13:51:31.573Z,33.38
2019-03-23T13:54:03.645Z,33.18
2019-03-23T13:56:36.182Z,31.93
2019-03-23T13:59:08.205Z,30.75
2019-03-23T14:01:40.849Z,32.80
2019-03-23T14:04:13.765Z,31.33
2019-03-23T14:06:47.163Z,30.97
2019-03-23T14:09:19.526Z,31.65
2019-03-23T14:11:55.291Z,32.08
2019-03-23T14:14:24.787Z,33.73
2019-03-23T14:16:56.569Z,30.68
2019-03-23T14:19:28.557Z,32.60
2019-03-23T14:24:57.869Z,31.48
2019-03-23T14:27:29.647Z,30.43
2019-03-23T14:30:01.599Z,29.92
2019-03-23T14:32:33.928Z,30.95
2019-03-23T14:35:05.956Z,29.07
2019-03-23T14:37:38.135Z,28.57
2019-03-23T14:40:10.280Z,29.48
2019-03-23T14:42:42.845Z,26.50
2019-03-23T14:45:14.618Z,25.72
2019-03-23T14:47:46.565Z,26.75
2019-03-23T14:50:18.460Z,23.18
2019-03-23T14:52:50.452Z,22.55
2019-03-23T14:55:22.423Z,23.40
2019-03-23T14:57:54.357Z,22.60
2019-03-23T15:00:34.082Z,22.58
2019-03-23T15:03:06.251Z,22.50
2019-03-23T15:05:45.397Z,23.52
2019-03-23T15:08:17.419Z,23.02
2019-03-23T15:10:49.579Z,22.82
2019-03-23T15:13:21.575Z,22.32
2019-03-23T15:15:53.822Z,22.90
2019-03-23T15:18:25.655Z,23.57
2019-03-23T15:20:57.797Z,23.50
2019-03-23T15:23:29.705Z,23.12
2019-03-23T15:26:01.716Z,23.20
2019-03-23T15:28:33.617Z,23.55
2019-03-23T15:31:05.734Z,22.87
2019-03-23T15:33:39.602Z,23.80
2019-03-23T15:36:11.848Z,23.27
2019-03-23T15:38:44.486Z,22.93
2019-03-23T15:41:16.663Z,22.50
2019-03-23T15:43:48.630Z,22.58
2019-03-23T15:46:20.687Z,24.07
2019-03-23T15:48:52.904Z,22.27
2019-03-23T15:51:26.604Z,23.92
2019-03-23T15:53:59.587Z,24.87
2019-03-23T15:56:31.875Z,22.80
2019-03-23T15:59:03.836Z,23.77
2019-03-23T16:01:35.728Z,24.55
2019-03-23T16:04:08.193Z,23.70
2019-03-23T16:06:40.095Z,23.12
2019-03-23T16:09:12.001Z,24.02
2019-03-23T16:11:43.834Z,24.05
2019-03-23T16:14:15.778Z,23.35
2019-03-23T16:16:47.735Z,22.60
2019-03-23T16:19:19.645Z,24.02
2019-03-23T16:21:51.524Z,24.18
2019-03-23T16:24:23.321Z,23.65
2019-03-23T16:26:55.368Z,24.40
2019-03-23T16:29:27.391Z,23.02
2019-03-23T16:31:59.337Z,27.62
2019-03-23T16:34:31.641Z,32.45
2019-03-23T16:37:03.702Z,34.85
2019-03-23T16:39:35.579Z,41.05
2019-03-23T16:42:07.442Z,40.38
2019-03-23T16:44:41.693Z,42.60
2019-03-23T16:47:13.801Z,41.48
2019-03-23T16:49:46.034Z,44.00
2019-03-23T16:52:18.196Z,44.67
2019-03-23T16:54:50.650Z,45.88
2019-03-23T16:57:23.651Z,44.33
2019-03-23T16:59:57.373Z,45.25
2019-03-23T17:02:29.479Z,45.75
2019-03-23T17:05:02.281Z,47.40
2019-03-23T17:07:34.899Z,48.73
2019-03-23T17:10:07.357Z,49.58
2019-03-23T17:12:39.385Z,48.87
2019-03-23T17:15:11.682Z,50.70
2019-03-23T17:17:44.022Z,48.87
2019-03-23T17:20:15.811Z,46.77
2019-03-23T17:22:47.931Z,43.63
2019-03-23T17:25:19.762Z,40.03
2019-03-23T17:27:51.682Z,38.47
2019-03-23T17:30:23.477Z,35.98
2019-03-23T17:32:55.420Z,34.50
2019-03-23T17:35:28.625Z,37.17
2019-03-23T17:38:00.535Z,32.90
2019-03-23T17:40:32.762Z,33.97
2019-03-23T17:43:06.174Z,33.07
2019-03-23T17:45:38.481Z,32.48
2019-03-23T17:48:10.583Z,31.73
2019-03-23T17:50:42.511Z,30.68
2019-03-23T17:53:14.617Z,30.10
2019-03-23T17:55:46.564Z,27.20
2019-03-23T17:58:18.368Z,25.93
2019-03-23T18:00:51.001Z,26.53
2019-03-23T18:03:22.982Z,26.23
2019-03-23T18:05:55.070Z,24.23
2019-03-23T18:08:26.963Z,23.50
2019-03-23T18:10:58.884Z,22.97
2019-03-23T18:13:31.376Z,21.77
2019-03-23T18:16:03.958Z,19.07
2019-03-23T18:18:35.904Z,18.13
2019-03-23T18:21:07.890Z,15.07
2019-03-23T18:23:39.911Z,14.10
2019-03-23T18:26:13.230Z,11.93
2019-03-23T18:28:46.581Z,11.70
2019-03-23T18:31:20.725Z,12.93
2019-03-23T18:33:53.506Z,12.30
2019-03-23T18:36:26.690Z,11.73
2019-03-23T18:38:58.780Z,11.77
2019-03-23T18:41:30.680Z,12.57
2019-03-23T18:44:02.728Z,11.80
2019-03-23T18:46:34.561Z,13.23
2019-03-23T18:49:06.579Z,12.80
2019-03-23T18:51:38.750Z,12.40
2019-03-23T18:54:10.806Z,12.33
2019-03-23T18:56:43.585Z,12.33
2019-03-23T18:59:15.579Z,11.90
2019-03-23T19:01:47.817Z,11.57
2019-03-23T19:04:19.776Z,11.30
2019-03-23T19:06:51.729Z,11.63
2019-03-23T19:09:23.542Z,12.73
2019-03-23T19:11:55.373Z,12.23
2019-03-23T19:14:27.454Z,12.73
2019-03-23T19:16:59.393Z,12.57
2019-03-23T19:19:32.082Z,13.10
2019-03-23T19:22:05.773Z,14.40
2019-03-23T19:24:41.574Z,14.10
2019-03-23T19:27:13.619Z,15.30
2019-03-23T19:29:45.612Z,14.30
2019-03-23T19:32:17.526Z,14.70
2019-03-23T19:34:49.349Z,15.70
2019-03-23T19:37:21.485Z,15.17
2019-03-23T19:39:53.418Z,15.33
2019-03-23T19:42:25.401Z,16.50
2019-03-23T19:44:57.345Z,15.70
2019-03-23T19:47:29.273Z,17.00
2019-03-23T19:50:01.374Z,16.63
2019-03-23T19:52:35.542Z,17.60
2019-03-23T19:55:07.840Z,18.10
2019-03-23T19:57:40.105Z,18.90
2019-03-23T20:00:12.612Z,18.23
2019-03-23T20:02:44.622Z,19.10
2019-03-23T20:05:16.532Z,18.63
2019-03-23T20:07:48.365Z,18.97
2019-03-23T20:10:21.344Z,20.13
2019-03-23T20:12:53.214Z,17.77
2019-03-23T20:15:25.320Z,19.03
2019-03-23T20:17:57.434Z,18.80
2019-03-23T20:20:33.908Z,19.03
2019-03-23T20:23:48.438Z,19.30
2019-03-23T20:26:20.351Z,19.70
2019-03-23T20:28:54.919Z,17.20
2019-03-23T20:31:28.118Z,17.80
2019-03-23T20:34:26.029Z,18.80
2019-03-23T20:39:51.875Z,20.10
2019-03-23T20:42:52.244Z,18.87
2019-03-23T20:45:49.287Z,21.27
2019-03-23T20:48:38.061Z,19.43
2019-03-23T20:51:07.978Z,18.43
2019-03-23T20:54:17.877Z,19.00
2019-03-23T20:56:53.191Z,18.53
2019-03-23T20:59:42.668Z,19.40
2019-03-23T21:02:12.008Z,19.60
2019-03-23T21:04:43.978Z,19.10
2019-03-23T21:07:16.048Z,20.60
2019-03-23T21:09:48.134Z,20.83
2019-03-23T21:12:20.260Z,18.13
2019-03-23T21:14:52.298Z,19.90
2019-03-23T21:17:24.191Z,19.87
2019-03-23T21:19:56.121Z,20.10
2019-03-23T21:22:28.150Z,20.50
2019-03-23T21:25:00.008Z,18.97
2019-03-23T21:27:32.478Z,18.50
2019-03-23T21:30:05.098Z,18.10
2019-03-23T21:32:38.000Z,18.57
2019-03-23T21:35:10.570Z,18.07
2019-03-23T21:37:42.686Z,17.60
2019-03-23T21:40:15.576Z,21.40
2019-03-23T21:42:47.486Z,18.10
2019-03-23T21:45:19.424Z,18.00
2019-03-23T21:47:51.344Z,18.33
2019-03-23T21:50:23.327Z,18.13
2019-03-23T21:52:55.433Z,17.73
2019-03-23T21:55:29.264Z,17.37
2019-03-23T21:58:01.241Z,18.40
2019-03-23T22:00:34.646Z,19.33
2019-03-23T22:03:06.834Z,19.43
2019-03-23T22:37:08.169Z,21.20
2019-03-23T22:39:40.238Z,20.17
2019-03-23T22:42:14.725Z,21.00
2019-03-23T22:44:52.396Z,21.63
2019-03-23T22:47:20.216Z,20.70
2019-03-23T22:49:52.081Z,22.27
2019-03-23T22:52:25.025Z,21.77
2019-03-23T22:54:57.153Z,19.37
2019-03-23T22:57:29.048Z,21.30
2019-03-23T23:00:01.344Z,22.53
2019-03-23T23:02:35.332Z,21.50
2019-03-23T23:05:10.477Z,20.90
2019-03-23T23:07:42.428Z,20.03
2019-03-23T23:10:14.520Z,20.30
2019-03-23T23:12:47.373Z,20.13
2019-03-23T23:15:19.177Z,20.07
2019-03-23T23:17:51.469Z,21.37
2019-03-23T23:20:23.294Z,20.43
2019-03-23T23:22:58.624Z,20.83
2019-03-23T23:25:31.044Z,20.17
2019-03-23T23:28:03.143Z,20.80
2019-03-23T23:30:36.356Z,19.30
2019-03-23T23:33:09.307Z,19.93
2019-03-23T23:35:42.236Z,20.53
2019-03-23T23:38:14.687Z,19.67
2019-03-23T23:40:46.497Z,20.60
2019-03-23T23:43:19.407Z,18.63
2019-03-23T23:45:52.547Z,21.13
2019-03-23T23:48:24.539Z,20.33
2019-03-23T23:50:56.488Z,20.57
2019-03-23T23:53:28.513Z,18.87
2019-03-23T23:56:00.409Z,20.57
2019-03-23T23:58:32.384Z,20.33
